createdAt,value
2019-05-11T00:01:42.774Z,4.30
2019-05-11T00:04:15.212Z,4.10
2019-05-11T00:06:47.391Z,4.43
2019-05-11T00:09:19.647Z,4.17
2019-05-11T00:11:53.121Z,4.57
2019-05-11T00:14:25.490Z,4.20
2019-05-11T00:16:57.879Z,4.60
2019-05-11T00:19:29.779Z,3.77
2019-05-11T00:22:02.469Z,4.30
2019-05-11T00:24:34.362Z,4.30
2019-05-11T00:27:07.767Z,4.20
2019-05-11T00:29:39.657Z,3.87
2019-05-11T00:32:12.392Z,3.80
2019-05-11T00:34:44.670Z,4.50
2019-05-11T00:37:16.491Z,4.10
2019-05-11T00:39:48.263Z,4.10
2019-05-11T00:42:20.152Z,4.10
2019-05-11T00:44:51.938Z,4.20
2019-05-11T00:47:24.258Z,4.30
2019-05-11T00:49:56.505Z,4.53
2019-05-11T00:52:28.801Z,4.17
2019-05-11T00:55:00.678Z,3.87
2019-05-11T00:57:33.928Z,3.97
2019-05-11T01:00:06.783Z,4.30
2019-05-11T01:02:43.010Z,4.10
2019-05-11T01:05:15.036Z,3.80
2019-05-11T01:07:47.396Z,3.70
2019-05-11T01:10:25.585Z,4.07
2019-05-11T01:12:52.821Z,4.03
2019-05-11T01:15:25.231Z,3.83
2019-05-11T01:17:57.085Z,3.90
2019-05-11T01:20:28.902Z,4.00
2019-05-11T01:23:00.733Z,4.03
2019-05-11T01:25:32.599Z,4.07
2019-05-11T01:28:05.012Z,4.20
2019-05-11T01:30:38.747Z,4.10
2019-05-11T01:33:10.582Z,4.27
2019-05-11T01:35:42.459Z,3.97
2019-05-11T01:38:14.261Z,4.00
2019-05-11T01:40:58.021Z,4.07
2019-05-11T01:43:20.208Z,4.00
2019-05-11T01:45:53.497Z,4.17
2019-05-11T01:48:25.335Z,4.07
2019-05-11T01:50:57.709Z,4.30
2019-05-11T01:53:30.024Z,4.40
2019-05-11T01:56:01.968Z,3.90
2019-05-11T01:58:34.915Z,4.37
2019-05-11T02:01:07.997Z,4.10
2019-05-11T02:03:40.301Z,4.27
2019-05-11T02:06:12.568Z,4.60
2019-05-11T02:08:45.196Z,4.50
2019-05-11T02:11:17.099Z,4.10
2019-05-11T02:13:48.960Z,4.60
2019-05-11T02:16:21.331Z,4.50
2019-05-11T02:18:53.171Z,4.63
2019-05-11T02:21:25.026Z,4.47
2019-05-11T02:23:56.849Z,4.80
2019-05-11T02:26:29.271Z,4.40
2019-05-11T02:29:01.527Z,4.90
2019-05-11T02:31:34.129Z,4.70
2019-05-11T02:34:06.403Z,4.60
2019-05-11T02:36:38.239Z,4.80
2019-05-11T02:39:10.086Z,5.00
2019-05-11T02:41:41.940Z,5.47
2019-05-11T02:44:14.084Z,5.40
2019-05-11T02:46:45.972Z,5.30
2019-05-11T02:49:17.740Z,5.73
2019-05-11T02:51:49.742Z,5.27
2019-05-11T02:54:21.997Z,5.53
2019-05-11T02:56:54.244Z,5.40
2019-05-11T02:59:29.709Z,5.70
2019-05-11T03:01:59.550Z,5.40
2019-05-11T03:04:31.422Z,5.93
2019-05-11T03:07:03.221Z,6.10
2019-05-11T03:09:35.730Z,5.60
2019-05-11T03:12:07.658Z,5.77
2019-05-11T03:14:40.843Z,5.87
2019-05-11T03:17:16.407Z,5.90
2019-05-11T03:19:48.254Z,6.70
2019-05-11T03:22:20.155Z,6.43
2019-05-11T03:24:51.996Z,7.07
2019-05-11T03:27:26.521Z,7.17
2019-05-11T03:30:01.044Z,6.97
2019-05-11T03:32:32.220Z,7.10
2019-05-11T03:35:04.676Z,6.70
2019-05-11T03:37:36.493Z,6.40
2019-05-11T03:40:09.158Z,7.83
2019-05-11T03:42:41.519Z,7.90
2019-05-11T03:45:13.907Z,7.47
2019-05-11T03:47:45.794Z,7.50
2019-05-11T03:50:18.163Z,7.83
2019-05-11T03:52:50.039Z,7.53
2019-05-11T03:55:21.914Z,7.27
2019-05-11T03:57:54.093Z,6.83
2019-05-11T04:00:37.834Z,7.33
2019-05-11T04:03:09.643Z,7.17
2019-05-11T04:05:41.490Z,7.17
2019-05-11T04:08:13.433Z,7.20
2019-05-11T04:10:45.663Z,7.17
2019-05-11T04:13:17.561Z,6.73
2019-05-11T04:15:49.383Z,7.37
2019-05-11T04:18:21.225Z,6.73
2019-05-11T04:20:53.122Z,7.03
2019-05-11T04:23:24.902Z,6.73
2019-05-11T04:25:58.148Z,6.90
2019-05-11T04:28:30.976Z,7.20
2019-05-11T04:31:02.876Z,6.90
2019-05-11T04:33:34.695Z,7.07
2019-05-11T04:36:10.316Z,6.80
2019-05-11T04:38:42.553Z,6.37
2019-05-11T04:41:14.748Z,6.87
2019-05-11T04:43:46.681Z,6.40
2019-05-11T04:46:18.558Z,7.00
2019-05-11T04:48:50.505Z,8.13
2019-05-11T04:51:22.800Z,7.93
2019-05-11T04:53:55.110Z,7.73
2019-05-11T04:56:26.934Z,7.73
2019-05-11T04:58:58.862Z,7.90
2019-05-11T05:01:31.187Z,7.53
2019-05-11T05:04:13.874Z,8.10
2019-05-11T05:06:39.024Z,7.53
2019-05-11T05:09:11.012Z,7.33
2019-05-11T05:11:42.826Z,7.40
2019-05-11T05:14:14.594Z,6.70
2019-05-11T05:16:46.491Z,6.40
2019-05-11T05:19:18.350Z,6.50
2019-05-11T05:21:50.181Z,6.33
2019-05-11T05:24:22.095Z,6.67
2019-05-11T05:26:54.526Z,6.40
2019-05-11T05:29:26.874Z,6.80
2019-05-11T05:31:59.193Z,5.80
2019-05-11T05:37:44.074Z,5.97
2019-05-11T05:40:20.877Z,5.97
2019-05-11T05:42:52.717Z,6.50
2019-05-11T05:45:25.488Z,5.77
2019-05-11T05:47:57.819Z,5.80
2019-05-11T05:50:30.059Z,5.90
2019-05-11T05:53:03.154Z,5.83
2019-05-11T05:55:35.024Z,5.63
2019-05-11T05:58:06.880Z,5.87
2019-05-11T06:00:38.701Z,5.80
2019-05-11T06:03:10.554Z,5.60
2019-05-11T06:05:43.404Z,5.30
2019-05-11T06:08:15.759Z,5.30
2019-05-11T06:10:47.563Z,4.80
2019-05-11T06:13:19.344Z,4.63
2019-05-11T06:15:51.111Z,4.83
2019-05-11T06:18:25.872Z,4.77
2019-05-11T06:20:58.777Z,5.47
2019-05-11T06:23:30.567Z,4.83
2019-05-11T06:26:02.771Z,4.97
2019-05-11T06:28:34.668Z,4.90
2019-05-11T06:31:06.604Z,4.53
2019-05-11T06:33:42.400Z,4.47
2019-05-11T06:36:14.183Z,4.47
2019-05-11T06:38:46.303Z,5.17
2019-05-11T06:41:18.378Z,4.33
2019-05-11T06:44:01.239Z,4.77
2019-05-11T06:46:23.890Z,4.90
2019-05-11T06:48:55.745Z,4.47
2019-05-11T06:51:27.543Z,4.50
2019-05-11T06:53:59.835Z,5.10
2019-05-11T06:56:37.084Z,4.80
2019-05-11T06:59:09.014Z,4.77
2019-05-11T07:01:41.383Z,4.17
2019-05-11T07:04:13.725Z,4.73
2019-05-11T07:06:45.524Z,4.77
2019-05-11T07:09:17.614Z,4.63
2019-05-11T07:11:51.484Z,4.90
2019-05-11T07:14:23.735Z,4.80
2019-05-11T07:16:55.623Z,5.00
2019-05-11T07:19:27.438Z,4.60
2019-05-11T07:21:59.316Z,5.33
2019-05-11T07:24:34.003Z,6.00
2019-05-11T07:27:06.256Z,5.30
2019-05-11T07:29:38.215Z,5.40
2019-05-11T07:32:22.460Z,5.10
2019-05-11T07:34:43.559Z,4.83
2019-05-11T07:37:15.807Z,5.13
2019-05-11T07:39:48.750Z,4.30
2019-05-11T07:42:20.672Z,3.90
2019-05-11T07:44:52.441Z,3.60
2019-05-11T07:47:27.720Z,4.10
2019-05-11T07:49:58.900Z,3.70
2019-05-11T07:52:30.758Z,3.73
2019-05-11T07:55:02.611Z,3.33
2019-05-11T07:57:35.771Z,3.30
2019-05-11T08:00:09.555Z,3.43
2019-05-11T08:02:41.391Z,3.00
2019-05-11T08:05:13.487Z,2.60
2019-05-11T08:07:47.917Z,2.90
2019-05-11T08:10:20.462Z,2.80
2019-05-11T08:12:52.734Z,3.00
2019-05-11T08:15:24.526Z,2.73
2019-05-11T08:17:57.834Z,3.00
2019-05-11T08:20:29.797Z,2.80
2019-05-11T08:23:02.074Z,2.53
2019-05-11T08:25:34.947Z,2.30
2019-05-11T08:28:11.877Z,2.50
2019-05-11T08:30:40.622Z,2.13
2019-05-11T08:33:12.419Z,2.27
2019-05-11T08:35:44.609Z,2.27
2019-05-11T08:38:18.022Z,1.90
2019-05-11T08:40:49.794Z,2.20
2019-05-11T08:43:22.028Z,1.90
2019-05-11T08:45:54.251Z,1.63
2019-05-11T08:48:28.197Z,1.83
2019-05-11T08:50:59.508Z,1.80
2019-05-11T08:53:31.693Z,1.60
2019-05-11T08:56:03.977Z,1.73
2019-05-11T08:58:37.813Z,1.90
2019-05-11T09:01:09.206Z,1.70
2019-05-11T09:03:47.917Z,1.70
2019-05-11T09:06:19.784Z,1.80
2019-05-11T09:08:51.610Z,1.93
2019-05-11T09:11:24.304Z,1.70
2019-05-11T09:13:57.848Z,1.57
2019-05-11T09:16:30.319Z,1.87
2019-05-11T09:19:02.495Z,1.60
2019-05-11T09:21:34.282Z,1.50
2019-05-11T09:24:08.216Z,1.70
2019-05-11T09:26:39.620Z,1.50
2019-05-11T09:29:11.365Z,1.47
2019-05-11T09:31:45.164Z,1.57
2019-05-11T09:34:18.234Z,1.60
2019-05-11T09:36:50.114Z,1.30
2019-05-11T09:39:22.073Z,1.60
2019-05-11T09:41:54.310Z,1.30
2019-05-11T09:44:28.889Z,1.20
2019-05-11T09:47:02.850Z,1.27
2019-05-11T09:49:47.084Z,1.30
2019-05-11T09:52:09.059Z,1.23
2019-05-11T09:54:42.767Z,1.30
2019-05-11T09:57:14.642Z,1.20
2019-05-11T09:59:47.803Z,1.33
2019-05-11T10:02:21.124Z,1.23
2019-05-11T10:04:53.194Z,1.27
2019-05-11T10:07:25.364Z,1.27
2019-05-11T10:09:58.356Z,1.20
2019-05-11T10:12:31.057Z,1.20
2019-05-11T10:15:03.178Z,1.30
2019-05-11T10:17:35.112Z,1.20
2019-05-11T10:20:09.499Z,1.30
2019-05-11T10:22:41.541Z,1.80
2019-05-11T10:25:14.258Z,1.80
2019-05-11T10:27:48.196Z,1.97
2019-05-11T10:30:20.554Z,1.60
2019-05-11T10:32:53.334Z,1.80
2019-05-11T10:35:25.179Z,1.70
2019-05-11T10:37:58.299Z,1.77
2019-05-11T10:40:30.754Z,1.70
2019-05-11T10:43:03.022Z,1.50
2019-05-11T10:45:37.738Z,1.20
2019-05-11T10:48:09.087Z,1.53
2019-05-11T10:50:41.279Z,1.33
2019-05-11T10:53:13.111Z,1.37
2019-05-11T10:55:47.793Z,1.40
2019-05-11T10:58:18.703Z,1.30
2019-05-11T11:00:50.959Z,1.00
2019-05-11T11:03:23.583Z,1.57
2019-05-11T11:05:55.430Z,1.47
2019-05-11T11:08:27.847Z,1.40
2019-05-11T11:10:59.846Z,1.60
2019-05-11T11:13:32.111Z,1.27
2019-05-11T11:16:03.876Z,1.37
2019-05-11T11:18:38.086Z,1.60
2019-05-11T11:21:21.766Z,1.30
2019-05-11T11:23:49.360Z,1.50
2019-05-11T11:26:21.051Z,1.30
2019-05-11T11:28:53.947Z,2.43
2019-05-11T11:31:25.811Z,5.40
2019-05-11T11:33:58.604Z,3.67
2019-05-11T11:36:30.855Z,1.57
2019-05-11T11:39:03.771Z,2.50
2019-05-11T11:41:37.754Z,1.03
2019-05-11T11:44:09.189Z,1.30
2019-05-11T11:46:52.152Z,2.63
2019-05-11T11:49:14.811Z,1.53
2019-05-11T11:51:48.439Z,1.93
2019-05-11T11:54:20.346Z,1.13
2019-05-11T11:56:52.634Z,1.20
2019-05-11T11:59:24.479Z,1.30
2019-05-11T12:01:58.144Z,1.30
2019-05-11T12:04:35.829Z,1.30
2019-05-11T12:07:08.453Z,1.23
2019-05-11T12:09:41.430Z,1.00
2019-05-11T12:12:13.272Z,0.97
2019-05-11T12:14:45.113Z,0.90
2019-05-11T12:17:18.167Z,1.30
2019-05-11T12:19:50.719Z,0.97
2019-05-11T12:22:22.463Z,0.90
2019-05-11T12:24:58.754Z,0.80
2019-05-11T12:27:30.961Z,0.80
2019-05-11T12:30:03.114Z,1.13
2019-05-11T12:32:43.340Z,0.80
2019-05-11T12:35:17.800Z,0.80
2019-05-11T12:37:49.824Z,0.80
2019-05-11T12:40:22.550Z,0.80
2019-05-11T12:42:54.746Z,0.80
2019-05-11T12:45:29.379Z,0.70
2019-05-11T12:48:00.804Z,0.63
2019-05-11T12:50:32.716Z,0.80
2019-05-11T12:53:05.131Z,0.70
2019-05-11T12:55:37.968Z,0.80
2019-05-11T12:58:10.609Z,0.70
2019-05-11T13:00:42.373Z,0.57
2019-05-11T13:03:14.225Z,0.70
2019-05-11T13:05:48.384Z,0.70
2019-05-11T13:08:20.116Z,0.70
2019-05-11T13:10:52.482Z,0.90
2019-05-11T13:13:24.210Z,0.60
2019-05-11T13:15:58.326Z,0.70
2019-05-11T13:18:30.728Z,0.60
2019-05-11T13:21:03.017Z,0.40
2019-05-11T13:23:35.399Z,0.90
2019-05-11T13:26:08.697Z,0.70
2019-05-11T13:28:41.162Z,0.80
2019-05-11T13:31:13.510Z,0.50
2019-05-11T13:33:47.939Z,0.60
2019-05-11T13:36:19.678Z,0.40
2019-05-11T13:38:51.454Z,0.60
2019-05-11T13:41:23.883Z,0.50
2019-05-11T13:43:57.572Z,1.27
2019-05-11T13:46:29.582Z,0.60
2019-05-11T13:49:01.454Z,0.53
2019-05-11T13:51:33.319Z,0.60
2019-05-11T13:54:07.735Z,0.50
2019-05-11T13:56:39.284Z,1.07
2019-05-11T13:59:11.076Z,0.70
2019-05-11T14:01:43.898Z,0.63
2019-05-11T14:04:18.182Z,0.50
2019-05-11T14:06:49.594Z,0.60
2019-05-11T14:09:22.384Z,0.60
2019-05-11T14:11:54.583Z,0.70
2019-05-11T14:14:28.158Z,0.80
2019-05-11T14:17:00.306Z,0.60
2019-05-11T14:19:32.503Z,0.60
2019-05-11T14:22:04.367Z,0.80
2019-05-11T14:24:37.617Z,0.63
2019-05-11T14:27:10.151Z,0.70
2019-05-11T14:29:41.934Z,0.70
2019-05-11T14:32:14.273Z,0.60
2019-05-11T14:34:48.433Z,0.70
2019-05-11T14:37:20.724Z,0.80
2019-05-11T14:39:52.563Z,0.70
2019-05-11T14:42:24.814Z,0.80
2019-05-11T14:44:58.805Z,0.50
2019-05-11T14:47:31.502Z,0.60
2019-05-11T14:50:04.810Z,0.50
2019-05-11T14:52:38.881Z,0.30
2019-05-11T14:55:10.845Z,0.60
2019-05-11T14:57:43.228Z,0.50
2019-05-11T15:00:16.202Z,0.40
2019-05-11T15:02:50.162Z,0.40
2019-05-11T15:05:22.537Z,0.50
2019-05-11T15:07:58.230Z,0.50
2019-05-11T15:10:30.216Z,0.50
2019-05-11T15:13:02.102Z,1.43
2019-05-11T15:15:34.365Z,0.43
2019-05-11T15:18:11.565Z,0.60
2019-05-11T15:20:43.395Z,0.50
2019-05-11T15:23:15.279Z,0.53
2019-05-11T15:25:53.594Z,0.50
2019-05-11T15:31:27.842Z,0.50
2019-05-11T15:34:18.604Z,0.50
2019-05-11T15:36:50.655Z,0.80
2019-05-11T15:42:19.977Z,0.50
2019-05-11T15:44:52.351Z,0.60
2019-05-11T15:47:24.237Z,0.80
2019-05-11T15:49:57.893Z,0.50
2019-05-11T15:52:30.379Z,0.70
2019-05-11T15:55:02.520Z,1.10
2019-05-11T15:57:40.377Z,0.80
2019-05-11T16:00:13.959Z,0.80
2019-05-11T16:02:49.969Z,0.70
2019-05-11T16:05:22.303Z,0.60
2019-05-11T16:07:58.854Z,0.80
2019-05-11T16:10:31.658Z,0.80
2019-05-11T16:13:06.003Z,0.70
2019-05-11T16:15:38.385Z,0.70
2019-05-11T16:18:13.556Z,0.87
2019-05-11T16:20:49.947Z,0.73
2019-05-11T16:23:22.379Z,1.00
2019-05-11T16:25:58.247Z,2.60
2019-05-11T16:28:31.592Z,1.10
2019-05-11T16:31:03.439Z,0.90
2019-05-11T16:33:35.340Z,1.00
2019-05-11T16:36:09.024Z,0.90
2019-05-11T16:38:48.362Z,1.07
2019-05-11T16:41:21.127Z,1.20
2019-05-11T16:43:53.048Z,1.10
2019-05-11T16:46:25.311Z,1.87
2019-05-11T16:48:58.058Z,1.10
2019-05-11T16:51:30.374Z,2.40
2019-05-11T16:54:06.981Z,2.30
2019-05-11T16:56:38.811Z,1.23
2019-05-11T16:59:11.163Z,1.20
2019-05-11T17:01:43.431Z,1.93
2019-05-11T17:04:15.301Z,1.30
2019-05-11T17:06:48.648Z,1.20
2019-05-11T17:09:20.668Z,1.40
2019-05-11T17:11:53.332Z,1.20
2019-05-11T17:14:28.041Z,1.53
2019-05-11T17:16:59.512Z,1.07
2019-05-11T17:19:42.938Z,1.00
2019-05-11T17:22:05.358Z,1.20
2019-05-11T17:24:37.990Z,1.20
2019-05-11T17:27:10.366Z,1.10
2019-05-11T17:29:51.999Z,1.30
2019-05-11T17:32:26.126Z,1.10
2019-05-11T17:34:58.195Z,1.00
2019-05-11T17:37:30.124Z,1.10
2019-05-11T17:40:02.325Z,1.10
2019-05-11T17:42:34.595Z,1.37
2019-05-11T17:45:08.209Z,1.20
2019-05-11T17:47:41.117Z,1.37
2019-05-11T17:50:13.543Z,1.50
2019-05-11T17:52:48.043Z,1.30
2019-05-11T17:55:20.569Z,1.50
2019-05-11T17:57:54.021Z,1.53
2019-05-11T18:00:28.307Z,1.43
2019-05-11T18:03:00.735Z,1.80
2019-05-11T18:05:32.631Z,1.53
2019-05-11T18:08:04.331Z,2.07
2019-05-11T18:10:38.311Z,2.30
2019-05-11T18:13:09.605Z,1.97
2019-05-11T18:15:41.907Z,2.00
2019-05-11T18:18:14.284Z,2.17
2019-05-11T18:20:48.480Z,1.90
2019-05-11T18:23:20.377Z,1.80
2019-05-11T18:25:52.666Z,2.07
2019-05-11T18:28:25.298Z,1.50
2019-05-11T18:31:03.087Z,1.60
2019-05-11T18:33:38.040Z,1.60
2019-05-11T18:36:09.583Z,1.50
2019-05-11T18:38:41.904Z,2.57
2019-05-11T18:41:13.705Z,2.40
2019-05-11T18:43:48.176Z,1.50
2019-05-11T18:46:19.427Z,1.53
2019-05-11T18:48:51.264Z,1.50
2019-05-11T18:51:23.053Z,1.30
2019-05-11T18:53:58.552Z,1.40
2019-05-11T18:56:30.871Z,1.60
2019-05-11T18:59:03.110Z,1.30
2019-05-11T19:01:37.839Z,1.60
2019-05-11T19:04:08.915Z,1.30
2019-05-11T19:06:41.713Z,1.43
2019-05-11T19:09:13.535Z,1.30
2019-05-11T19:11:45.424Z,1.60
2019-05-11T19:14:17.255Z,1.40
2019-05-11T19:16:49.256Z,1.50
2019-05-11T19:19:23.018Z,1.83
2019-05-11T19:21:54.928Z,1.80
2019-05-11T19:24:27.811Z,1.83
2019-05-11T19:27:00.262Z,1.83
2019-05-11T19:29:32.118Z,1.90
2019-05-11T19:32:04.421Z,2.03
2019-05-11T19:34:38.291Z,2.00
2019-05-11T19:37:10.191Z,2.30
2019-05-11T19:39:42.510Z,1.73
2019-05-11T19:42:14.377Z,1.90
2019-05-11T19:44:47.938Z,1.80
2019-05-11T19:47:21.070Z,2.07
2019-05-11T19:50:04.563Z,1.80
2019-05-11T19:52:36.986Z,2.20
2019-05-11T19:55:09.291Z,2.30
2019-05-11T19:57:41.240Z,2.10
2019-05-11T20:00:18.166Z,1.87
2019-05-11T20:02:50.835Z,1.80
2019-05-11T20:05:22.745Z,1.70
2019-05-11T20:07:54.705Z,1.50
2019-05-11T20:10:27.810Z,1.40
2019-05-11T20:13:00.671Z,1.40
2019-05-11T20:15:32.832Z,1.20
2019-05-11T20:18:07.776Z,1.30
2019-05-11T20:20:38.827Z,1.40
2019-05-11T20:23:10.706Z,1.40
2019-05-11T20:25:43.014Z,1.07
2019-05-11T20:28:15.343Z,1.20
2019-05-11T20:30:48.304Z,1.20
2019-05-11T20:33:20.634Z,1.47
2019-05-11T20:35:53.007Z,1.40
2019-05-11T20:38:24.891Z,1.40
2019-05-11T20:40:57.782Z,1.20
2019-05-11T20:43:31.450Z,1.23
2019-05-11T20:46:03.295Z,1.20
2019-05-11T20:48:38.270Z,1.30
2019-05-11T20:51:10.204Z,1.20
2019-05-11T20:53:46.195Z,1.10
2019-05-11T20:56:17.809Z,1.10
2019-05-11T20:58:59.547Z,1.00
2019-05-11T21:01:30.718Z,1.20
2019-05-11T21:04:02.608Z,1.10
2019-05-11T21:06:34.490Z,1.10
2019-05-11T21:09:08.862Z,1.27
2019-05-11T21:11:41.149Z,1.20
2019-05-11T21:14:13.505Z,1.40
2019-05-11T21:16:47.712Z,1.30
2019-05-11T21:19:19.735Z,1.10
2019-05-11T21:21:53.973Z,1.13
2019-05-11T21:24:28.110Z,1.00
2019-05-11T21:27:01.039Z,1.10
2019-05-11T21:29:33.351Z,1.10
2019-05-11T21:32:05.258Z,1.00
2019-05-11T21:34:38.372Z,1.30
2019-05-11T21:37:10.291Z,1.10
2019-05-11T21:39:42.193Z,1.23
2019-05-11T21:42:14.473Z,1.10
2019-05-11T21:44:46.227Z,1.37
2019-05-11T21:47:18.459Z,1.30
2019-05-11T21:49:50.299Z,1.10
2019-05-11T21:52:22.219Z,1.20
2019-05-11T21:54:54.127Z,0.97
2019-05-11T21:57:27.904Z,1.10
2019-05-11T22:00:00.621Z,1.00
2019-05-11T22:02:40.571Z,1.10
2019-05-11T22:05:12.514Z,1.20
2019-05-11T22:07:44.840Z,0.90
2019-05-11T22:10:17.759Z,1.00
2019-05-11T22:12:49.726Z,1.00
2019-05-11T22:15:22.620Z,1.00
2019-05-11T22:17:58.412Z,1.03
2019-05-11T22:20:30.184Z,1.00
2019-05-11T22:23:02.047Z,1.10
2019-05-11T22:25:33.899Z,1.30
2019-05-11T22:28:08.193Z,1.03
2019-05-11T22:30:40.550Z,1.27
2019-05-11T22:33:12.983Z,1.30
2019-05-11T22:35:45.374Z,1.30
2019-05-11T22:38:17.247Z,1.20
2019-05-11T22:40:48.981Z,1.03
2019-05-11T22:43:22.162Z,1.20
2019-05-11T22:45:54.551Z,1.17
2019-05-11T22:48:26.815Z,1.17
2019-05-11T22:50:59.170Z,1.20
2019-05-11T22:53:43.903Z,1.07
2019-05-11T22:56:06.087Z,1.10
2019-05-11T22:58:37.971Z,1.07
2019-05-11T23:01:10.181Z,1.10
2019-05-11T23:03:42.039Z,1.17
2019-05-11T23:06:14.309Z,1.20
2019-05-11T23:08:48.305Z,1.30
2019-05-11T23:11:20.479Z,1.00
2019-05-11T23:13:52.783Z,1.00
2019-05-11T23:16:25.167Z,1.13
2019-05-11T23:18:56.969Z,1.30
2019-05-11T23:21:30.403Z,0.90
2019-05-11T23:24:03.553Z,1.23
2019-05-11T23:26:35.460Z,1.40
2019-05-11T23:29:08.149Z,1.00
2019-05-11T23:31:40.165Z,1.40
2019-05-11T23:34:12.021Z,1.27
2019-05-11T23:36:43.912Z,1.53
2019-05-11T23:39:17.682Z,1.60
2019-05-11T23:41:49.829Z,1.87
2019-05-11T23:44:22.073Z,1.90
2019-05-11T23:46:54.466Z,1.60
2019-05-11T23:49:26.765Z,1.80
2019-05-11T23:51:58.527Z,1.60
2019-05-11T23:54:30.757Z,1.80
2019-05-11T23:57:02.579Z,2.10
2019-05-11T23:59:34.428Z,2.13
